createdAt,value
2018-05-18T00:00:57.303Z,79.30
2018-05-18T00:03:24.348Z,79.30
2018-05-18T00:05:51.394Z,78.60
2018-05-18T00:08:19.308Z,79.30
2018-05-18T00:10:46.342Z,79.30
2018-05-18T00:13:13.393Z,79.60
2018-05-18T00:15:40.372Z,80.00
2018-05-18T00:18:07.364Z,79.90
2018-05-18T00:20:34.400Z,80.20
2018-05-18T00:23:01.412Z,80.40
2018-05-18T00:25:29.203Z,80.20
2018-05-18T00:27:56.217Z,80.20
2018-05-18T00:30:23.274Z,80.10
2018-05-18T00:32:50.305Z,80.00
2018-05-18T00:35:17.298Z,80.10
2018-05-18T00:37:44.336Z,80.10
2018-05-18T00:40:11.344Z,80.80
2018-05-18T00:42:38.361Z,81.60
2018-05-18T00:45:05.365Z,80.50
2018-05-18T00:47:32.398Z,80.70
2018-05-18T00:49:59.472Z,80.90
2018-05-18T00:52:26.493Z,81.40
2018-05-18T00:54:54.264Z,81.30
2018-05-18T00:57:22.444Z,81.20
2018-05-18T00:59:49.472Z,81.10
2018-05-18T01:02:16.494Z,81.30
2018-05-18T01:04:43.585Z,81.30
2018-05-18T01:07:10.545Z,81.30
2018-05-18T01:09:37.573Z,81.10
2018-05-18T01:12:05.368Z,81.00
2018-05-18T01:14:32.364Z,81.00
2018-05-18T01:16:59.373Z,80.30
2018-05-18T01:19:26.403Z,81.20
2018-05-18T01:21:53.439Z,80.50
2018-05-18T01:24:20.525Z,80.90
2018-05-18T01:26:47.523Z,80.60
2018-05-18T01:29:15.296Z,80.40
2018-05-18T01:31:43.126Z,80.20
2018-05-18T01:34:10.224Z,80.20
2018-05-18T01:36:37.187Z,80.30
2018-05-18T01:39:05.141Z,80.40
2018-05-18T01:41:32.174Z,80.80
2018-05-18T01:43:59.209Z,80.30
2018-05-18T01:46:26.945Z,80.00
2018-05-18T01:48:53.980Z,80.00
2018-05-18T01:51:20.972Z,80.00
2018-05-18T01:53:48.409Z,80.10
2018-05-18T01:56:15.627Z,80.30
2018-05-18T01:58:42.798Z,80.50
2018-05-18T02:01:09.933Z,80.40
2018-05-18T02:03:36.924Z,80.40
2018-05-18T02:06:03.972Z,80.70
2018-05-18T02:08:31.237Z,80.60
2018-05-18T02:10:58.506Z,80.90
2018-05-18T02:13:25.548Z,81.20
2018-05-18T02:15:53.472Z,80.80
2018-05-18T02:18:20.636Z,81.10
2018-05-18T02:20:48.376Z,81.10
2018-05-18T02:23:16.194Z,80.90
2018-05-18T02:25:43.224Z,80.80
2018-05-18T02:28:10.232Z,80.80
2018-05-18T02:30:37.435Z,80.80
2018-05-18T02:33:04.505Z,81.10
2018-05-18T02:35:31.542Z,80.80
2018-05-18T02:37:58.560Z,81.30
2018-05-18T02:40:26.327Z,81.30
2018-05-18T02:42:53.476Z,81.10
2018-05-18T02:45:21.233Z,81.40
2018-05-18T02:47:49.008Z,81.70
2018-05-18T02:50:16.044Z,81.60
2018-05-18T02:52:43.786Z,81.40
2018-05-18T02:55:11.102Z,81.30
2018-05-18T02:57:38.211Z,81.40
2018-05-18T03:00:05.449Z,81.00
2018-05-18T03:02:32.508Z,81.40
2018-05-18T03:05:00.269Z,81.10
2018-05-18T03:07:28.044Z,81.10
2018-05-18T03:09:55.065Z,80.90
2018-05-18T03:12:22.081Z,80.70
2018-05-18T03:14:49.081Z,80.90
2018-05-18T03:17:17.011Z,80.80
2018-05-18T03:19:44.018Z,80.70
2018-05-18T03:22:11.036Z,81.20
2018-05-18T03:24:39.032Z,80.60
2018-05-18T03:27:06.053Z,80.60
2018-05-18T03:29:33.835Z,80.50
2018-05-18T03:32:00.863Z,80.40
2018-05-18T03:34:27.895Z,80.50
2018-05-18T03:36:54.905Z,80.80
2018-05-18T03:39:21.940Z,80.70
2018-05-18T03:41:48.996Z,81.00
2018-05-18T03:44:16.033Z,81.20
2018-05-18T03:46:43.036Z,81.00
2018-05-18T03:49:10.808Z,81.20
2018-05-18T03:51:38.592Z,81.10
2018-05-18T03:54:05.633Z,81.00
2018-05-18T03:56:32.683Z,81.20
2018-05-18T03:58:59.692Z,81.00
2018-05-18T04:01:45.176Z,81.20
2018-05-18T04:04:31.337Z,80.90
2018-05-18T04:07:16.966Z,80.90
2018-05-18T04:09:44.227Z,81.00
2018-05-18T04:12:11.433Z,81.30
2018-05-18T04:14:38.480Z,80.90
2018-05-18T04:17:06.477Z,80.90
2018-05-18T04:19:33.548Z,80.80
2018-05-18T04:22:01.564Z,81.10
2018-05-18T04:24:28.695Z,81.10
2018-05-18T04:26:55.724Z,81.20
2018-05-18T04:29:22.792Z,81.10
2018-05-18T04:31:49.825Z,80.70
2018-05-18T04:34:16.882Z,80.80
2018-05-18T04:36:43.896Z,81.10
2018-05-18T04:39:11.655Z,81.00
2018-05-18T04:41:38.721Z,81.80
2018-05-18T04:44:06.356Z,81.20
2018-05-18T04:46:33.761Z,80.20
2018-05-18T04:49:01.600Z,80.20
2018-05-18T04:51:28.670Z,78.40
2018-05-18T04:53:55.933Z,77.60
2018-05-18T04:56:22.951Z,78.50
2018-05-18T04:58:50.084Z,78.50
2018-05-18T05:01:17.085Z,78.70
2018-05-18T05:03:44.107Z,78.20
2018-05-18T05:06:11.131Z,77.90
2018-05-18T05:08:38.358Z,76.50
2018-05-18T05:11:05.410Z,75.10
2018-05-18T05:13:32.413Z,74.50
2018-05-18T05:15:59.419Z,74.30
2018-05-18T05:18:26.420Z,74.70
2018-05-18T05:20:53.431Z,73.40
2018-05-18T05:23:20.483Z,72.20
2018-05-18T05:25:47.490Z,72.00
2018-05-18T05:28:14.566Z,72.90
2018-05-18T05:30:41.514Z,72.60
2018-05-18T05:33:09.284Z,71.60
2018-05-18T05:35:36.313Z,71.60
2018-05-18T05:38:04.068Z,71.70
2018-05-18T05:40:31.819Z,70.90
2018-05-18T05:42:58.841Z,70.90
2018-05-18T05:45:25.847Z,70.50
2018-05-18T05:47:52.887Z,70.40
2018-05-18T05:50:19.902Z,70.60
2018-05-18T05:52:47.751Z,69.70
2018-05-18T05:55:14.741Z,69.20
2018-05-18T05:57:42.481Z,69.00
2018-05-18T06:00:09.548Z,69.00
2018-05-18T06:02:37.312Z,68.30
2018-05-18T06:05:05.077Z,68.10
2018-05-18T06:07:32.076Z,68.00
2018-05-18T06:09:59.095Z,67.60
2018-05-18T06:12:26.325Z,67.60
2018-05-18T06:14:54.133Z,66.90
2018-05-18T06:17:21.149Z,66.70
2018-05-18T06:19:48.151Z,65.40
2018-05-18T06:22:15.160Z,66.30
2018-05-18T06:24:42.168Z,65.70
2018-05-18T06:27:09.179Z,65.10
2018-05-18T06:29:36.179Z,65.00
2018-05-18T06:32:03.217Z,64.70
2018-05-18T06:34:31.042Z,64.90
2018-05-18T06:36:58.028Z,64.90
2018-05-18T06:39:25.041Z,63.90
2018-05-18T06:41:52.069Z,63.80
2018-05-18T06:44:19.060Z,62.90
2018-05-18T06:46:46.099Z,62.70
2018-05-18T06:49:13.275Z,63.60
2018-05-18T06:51:40.333Z,63.40
2018-05-18T06:54:08.071Z,62.80
2018-05-18T06:56:35.870Z,63.00
2018-05-18T06:59:02.935Z,62.70
2018-05-18T07:01:29.948Z,63.20
2018-05-18T07:03:57.678Z,62.50
2018-05-18T07:06:25.500Z,60.30
2018-05-18T07:08:52.516Z,60.30
2018-05-18T07:11:20.271Z,61.10
2018-05-18T07:13:48.048Z,61.20
2018-05-18T07:16:15.809Z,60.00
2018-05-18T07:18:42.837Z,60.00
2018-05-18T07:21:09.850Z,59.50
2018-05-18T07:23:36.880Z,58.50
2018-05-18T07:26:03.892Z,58.00
2018-05-18T07:28:31.628Z,56.50
2018-05-18T07:30:58.628Z,57.10
2018-05-18T07:33:25.613Z,55.90
2018-05-18T07:35:52.623Z,53.10
2018-05-18T07:38:19.636Z,53.80
2018-05-18T07:40:47.385Z,53.60
2018-05-18T07:43:14.427Z,53.50
2018-05-18T07:45:41.428Z,53.00
2018-05-18T07:48:09.315Z,53.60
2018-05-18T07:50:36.330Z,53.00
2018-05-18T07:53:03.360Z,53.90
2018-05-18T07:55:31.103Z,52.50
2018-05-18T07:57:58.121Z,52.40
2018-05-18T08:00:25.120Z,53.90
2018-05-18T08:02:52.148Z,52.20
2018-05-18T08:05:19.913Z,51.30
2018-05-18T08:07:46.997Z,51.20
2018-05-18T08:10:13.972Z,51.50
2018-05-18T08:12:41.028Z,51.80
2018-05-18T08:15:08.087Z,51.50
2018-05-18T08:17:35.057Z,50.90
2018-05-18T08:20:02.073Z,51.30
2018-05-18T08:22:29.075Z,52.10
2018-05-18T08:24:56.086Z,51.10
2018-05-18T08:27:23.181Z,51.70
2018-05-18T08:29:50.194Z,52.60
2018-05-18T08:32:17.208Z,50.70
2018-05-18T08:34:44.259Z,51.70
2018-05-18T08:37:11.280Z,50.90
2018-05-18T08:39:38.287Z,50.30
2018-05-18T08:42:05.335Z,50.50
2018-05-18T08:44:33.088Z,50.40
2018-05-18T08:47:00.877Z,50.10
2018-05-18T08:49:28.629Z,50.10
2018-05-18T08:51:56.390Z,49.10
2018-05-18T08:54:24.152Z,50.10
2018-05-18T08:56:51.161Z,50.10
2018-05-18T08:59:18.208Z,51.40
2018-05-18T09:01:45.240Z,52.90
2018-05-18T09:04:12.275Z,52.00
2018-05-18T09:06:39.334Z,51.70
2018-05-18T09:09:06.347Z,51.10
2018-05-18T09:11:33.551Z,48.80
2018-05-18T09:14:00.628Z,49.20
2018-05-18T09:16:27.645Z,52.10
2018-05-18T09:18:54.677Z,48.90
2018-05-18T09:21:21.677Z,49.00
2018-05-18T09:23:49.446Z,49.90
2018-05-18T09:26:16.477Z,50.00
2018-05-18T09:28:43.497Z,49.60
2018-05-18T09:31:10.527Z,50.10
2018-05-18T09:33:37.544Z,51.20
2018-05-18T09:36:04.561Z,51.10
2018-05-18T09:38:31.589Z,51.70
2018-05-18T09:40:58.599Z,49.90
2018-05-18T09:43:26.083Z,49.10
2018-05-18T09:45:53.233Z,49.90
2018-05-18T09:48:20.236Z,50.70
2018-05-18T09:50:47.989Z,52.40
2018-05-18T09:53:14.989Z,52.30
2018-05-18T09:55:41.993Z,52.00
2018-05-18T09:58:10.108Z,50.00
2018-05-18T10:00:37.963Z,52.00
2018-05-18T10:03:04.980Z,52.00
2018-05-18T10:05:32.224Z,51.20
2018-05-18T10:08:00.297Z,53.20
2018-05-18T10:10:27.410Z,53.20
2018-05-18T10:12:54.457Z,53.00
2018-05-18T10:15:21.472Z,53.40
2018-05-18T10:17:48.475Z,52.40
2018-05-18T10:20:15.481Z,52.00
2018-05-18T10:22:42.507Z,51.30
2018-05-18T10:25:09.516Z,50.90
2018-05-18T10:27:37.492Z,51.50
2018-05-18T10:30:04.561Z,51.50
2018-05-18T10:32:31.596Z,53.00
2018-05-18T10:34:59.368Z,52.20
2018-05-18T10:37:26.372Z,52.20
2018-05-18T10:39:53.388Z,52.40
2018-05-18T10:42:20.416Z,50.00
2018-05-18T10:44:47.405Z,48.90
2018-05-18T10:47:14.436Z,48.20
2018-05-18T10:49:41.716Z,48.10
2018-05-18T10:52:09.045Z,47.90
2018-05-18T10:54:36.220Z,48.80
2018-05-18T10:57:03.976Z,48.80
2018-05-18T10:59:30.989Z,48.80
2018-05-18T11:01:58.025Z,49.10
2018-05-18T11:04:25.043Z,48.40
2018-05-18T11:06:52.820Z,50.20
2018-05-18T11:09:20.565Z,47.80
2018-05-18T11:11:48.721Z,48.10
2018-05-18T11:14:15.818Z,48.10
2018-05-18T11:16:43.157Z,49.50
2018-05-18T11:19:10.472Z,49.40
2018-05-18T11:21:37.595Z,48.70
2018-05-18T11:24:04.648Z,49.30
2018-05-18T11:26:31.676Z,49.80
2018-05-18T11:28:58.952Z,50.50
2018-05-18T11:31:26.136Z,50.50
2018-05-18T11:33:54.074Z,49.10
2018-05-18T11:36:21.178Z,49.10
2018-05-18T11:38:49.242Z,51.00
2018-05-18T11:41:16.444Z,51.00
2018-05-18T11:43:43.637Z,49.60
2018-05-18T11:46:10.677Z,49.30
2018-05-18T11:48:37.912Z,50.70
2018-05-18T11:51:05.019Z,49.30
2018-05-18T11:53:32.021Z,49.00
2018-05-18T11:55:59.049Z,50.10
2018-05-18T11:58:26.065Z,50.20
2018-05-18T12:00:53.249Z,49.80
2018-05-18T12:03:20.444Z,48.90
2018-05-18T12:05:47.497Z,49.70
2018-05-18T12:08:14.816Z,50.60
2018-05-18T12:10:41.932Z,51.00
2018-05-18T12:13:09.066Z,49.40
2018-05-18T12:15:36.172Z,49.10
2018-05-18T12:18:03.994Z,47.70
2018-05-18T12:20:31.153Z,47.70
2018-05-18T12:22:58.192Z,49.30
2018-05-18T12:25:25.516Z,49.00
2018-05-18T12:27:52.574Z,49.80
2018-05-18T12:30:20.492Z,48.40
2018-05-18T12:32:48.348Z,50.80
2018-05-18T12:35:15.477Z,50.80
2018-05-18T12:37:42.730Z,50.20
2018-05-18T12:40:09.944Z,47.70
2018-05-18T12:42:37.186Z,46.70
2018-05-18T12:45:04.502Z,47.80
2018-05-18T12:47:32.381Z,46.10
2018-05-18T12:50:00.289Z,48.20
2018-05-18T12:52:28.368Z,48.20
2018-05-18T12:54:55.589Z,45.30
2018-05-18T12:57:22.842Z,47.00
2018-05-18T12:59:49.966Z,47.10
2018-05-18T13:02:17.969Z,43.80
2018-05-18T13:04:45.038Z,43.80
2018-05-18T13:07:13.117Z,42.00
2018-05-18T13:09:40.208Z,41.20
2018-05-18T13:12:07.205Z,44.50
2018-05-18T13:14:34.292Z,46.20
2018-05-18T13:17:01.550Z,43.40
2018-05-18T13:19:28.721Z,45.30
2018-05-18T13:21:56.526Z,42.50
2018-05-18T13:24:23.585Z,42.40
2018-05-18T13:26:51.029Z,42.20
2018-05-18T13:29:18.110Z,41.80
2018-05-18T13:31:45.953Z,39.40
2018-05-18T13:34:13.064Z,39.40
2018-05-18T13:36:42.056Z,40.60
2018-05-18T13:39:09.310Z,40.60
2018-05-18T13:41:36.538Z,39.60
2018-05-18T13:44:03.709Z,38.60
2018-05-18T13:46:30.870Z,38.80
2018-05-18T13:48:57.961Z,39.60
2018-05-18T13:51:25.042Z,39.60
2018-05-18T13:53:52.193Z,40.50
2018-05-18T13:56:19.418Z,42.20
2018-05-18T13:58:46.444Z,42.30
2018-05-18T14:01:13.509Z,41.80
2018-05-18T14:03:40.568Z,39.90
2018-05-18T14:06:07.608Z,40.90
2018-05-18T14:08:34.652Z,40.10
2018-05-18T14:11:01.761Z,41.80
2018-05-18T14:13:28.720Z,42.20
2018-05-18T14:15:56.444Z,42.80
2018-05-18T14:18:24.260Z,45.40
2018-05-18T14:20:51.583Z,45.40
2018-05-18T14:23:18.684Z,43.90
2018-05-18T14:25:47.008Z,44.40
2018-05-18T14:28:14.203Z,45.00
2018-05-18T14:30:42.118Z,45.10
2018-05-18T14:33:10.221Z,44.40
2018-05-18T14:35:37.457Z,45.50
2018-05-18T14:38:04.846Z,46.70
2018-05-18T14:40:33.134Z,48.10
2018-05-18T14:43:00.206Z,51.50
2018-05-18T14:45:27.179Z,51.70
2018-05-18T14:47:54.920Z,57.50
2018-05-18T14:50:21.957Z,57.40
2018-05-18T14:52:48.961Z,62.60
2018-05-18T14:55:16.190Z,67.30
2018-05-18T14:57:43.256Z,62.00
2018-05-18T15:00:10.316Z,64.60
2018-05-18T15:02:37.344Z,68.70
2018-05-18T15:05:04.357Z,69.10
2018-05-18T15:07:31.433Z,71.90
2018-05-18T15:09:58.481Z,74.40
2018-05-18T15:12:26.240Z,75.10
2018-05-18T15:14:53.294Z,75.00
2018-05-18T15:17:21.336Z,75.90
2018-05-18T15:19:48.548Z,75.80
2018-05-18T15:22:15.761Z,75.20
2018-05-18T15:24:42.805Z,78.30
2018-05-18T15:27:10.591Z,79.70
2018-05-18T15:29:37.615Z,79.60
2018-05-18T15:32:05.621Z,77.00
2018-05-18T15:34:32.841Z,76.90
2018-05-18T15:37:00.008Z,80.00
2018-05-18T15:39:27.300Z,81.60
2018-05-18T15:41:54.392Z,81.40
2018-05-18T15:44:21.406Z,78.90
2018-05-18T15:46:48.517Z,80.10
2018-05-18T15:49:15.536Z,81.60
2018-05-18T15:51:42.588Z,81.50
2018-05-18T15:54:09.595Z,82.70
2018-05-18T15:56:36.583Z,84.00
2018-05-18T15:59:03.668Z,84.00
2018-05-18T16:01:30.702Z,84.00
2018-05-18T16:03:58.056Z,82.70
2018-05-18T16:06:26.061Z,80.80
2018-05-18T16:08:53.895Z,81.60
2018-05-18T16:11:21.075Z,81.50
2018-05-18T16:13:48.365Z,81.00
2018-05-18T16:16:15.452Z,83.40
2018-05-18T16:18:42.564Z,81.20
2018-05-18T16:21:09.631Z,79.60
2018-05-18T16:23:36.660Z,78.50
2018-05-18T16:26:03.701Z,77.20
2018-05-18T16:28:30.720Z,79.10
2018-05-18T16:30:58.488Z,73.20
2018-05-18T16:33:26.347Z,71.50
2018-05-18T16:35:53.360Z,71.40
2018-05-18T16:38:20.478Z,72.20
2018-05-18T16:40:47.521Z,75.90
2018-05-18T16:43:15.290Z,80.70
2018-05-18T16:45:42.467Z,80.70
2018-05-18T16:48:09.673Z,78.50
2018-05-18T16:50:36.754Z,77.60
2018-05-18T16:53:04.676Z,77.40
2018-05-18T16:55:32.610Z,76.70
2018-05-18T16:57:59.663Z,76.70
2018-05-18T17:00:26.933Z,76.50
2018-05-18T17:02:54.873Z,75.80
2018-05-18T17:05:22.189Z,75.60
2018-05-18T17:07:49.417Z,77.20
2018-05-18T17:10:17.416Z,78.00
2018-05-18T17:12:44.521Z,78.00
2018-05-18T17:15:11.864Z,77.20
2018-05-18T17:17:39.140Z,78.50
2018-05-18T17:20:06.369Z,79.10
2018-05-18T17:22:33.431Z,79.80
2018-05-18T17:25:00.440Z,80.70
2018-05-18T17:27:27.600Z,80.90
2018-05-18T17:29:54.684Z,81.10
2018-05-18T17:32:21.764Z,81.20
2018-05-18T17:34:49.562Z,81.40
2018-05-18T17:37:17.450Z,78.10
2018-05-18T17:39:44.701Z,78.20
2018-05-18T17:42:12.117Z,77.60
2018-05-18T17:44:39.197Z,80.20
2018-05-18T17:47:06.548Z,80.40
2018-05-18T17:49:33.720Z,81.20
2018-05-18T17:52:00.922Z,80.70
2018-05-18T17:54:28.254Z,79.60
2018-05-18T17:56:56.253Z,82.20
2018-05-18T17:59:23.473Z,82.10
2018-05-18T18:01:50.693Z,82.40
2018-05-18T18:04:18.008Z,83.40
2018-05-18T18:06:45.165Z,83.20
2018-05-18T18:09:12.385Z,83.40
2018-05-18T18:11:39.434Z,83.60
2018-05-18T18:14:06.783Z,84.20
2018-05-18T18:16:33.835Z,84.00
2018-05-18T18:19:01.153Z,84.80
2018-05-18T18:21:28.388Z,84.40
2018-05-18T18:23:55.613Z,84.50
2018-05-18T18:26:22.802Z,85.10
2018-05-18T18:28:50.811Z,84.90
2018-05-18T18:31:18.613Z,84.40
2018-05-18T18:33:46.877Z,84.40
2018-05-18T18:36:14.024Z,84.50
2018-05-18T18:38:41.107Z,83.80
2018-05-18T18:41:08.173Z,84.60
2018-05-18T18:43:35.405Z,85.30
2018-05-18T18:46:03.831Z,85.30
2018-05-18T18:48:31.594Z,85.30
2018-05-18T18:50:58.684Z,85.30
2018-05-18T18:53:27.792Z,85.30
2018-05-18T18:55:55.584Z,86.60
2018-05-18T18:58:22.690Z,85.60
2018-05-18T19:00:49.778Z,85.80
2018-05-18T19:03:21.869Z,86.20
2018-05-18T19:05:48.958Z,86.10
2018-05-18T19:08:16.151Z,85.60
2018-05-18T19:10:43.193Z,84.90
2018-05-18T19:13:13.734Z,84.90
2018-05-18T19:15:40.814Z,84.90
2018-05-18T19:18:07.935Z,84.50
2018-05-18T19:20:35.085Z,84.50
2018-05-18T19:23:10.153Z,84.70
2018-05-18T19:25:37.212Z,84.70
2018-05-18T19:28:04.296Z,84.60
2018-05-18T19:30:31.380Z,84.60
2018-05-18T19:33:09.509Z,84.70
2018-05-18T19:35:36.620Z,84.60
2018-05-18T19:38:03.725Z,84.50
2018-05-18T19:40:30.810Z,84.60
2018-05-18T19:42:59.027Z,83.90
2018-05-18T19:45:27.056Z,83.80
2018-05-18T19:47:54.849Z,83.50
2018-05-18T19:50:22.116Z,83.50
2018-05-18T19:52:56.525Z,83.20
2018-05-18T19:55:24.275Z,83.30
2018-05-18T19:57:51.381Z,83.50
2018-05-18T20:00:18.504Z,83.70
2018-05-18T20:02:49.525Z,83.80
2018-05-18T20:05:19.391Z,83.70
2018-05-18T20:07:46.958Z,84.10
2018-05-18T20:10:14.852Z,84.20
2018-05-18T20:12:56.328Z,84.20
2018-05-18T20:15:23.485Z,83.90
2018-05-18T20:17:50.783Z,83.90
2018-05-18T20:20:18.046Z,84.10
2018-05-18T20:22:50.108Z,84.30
2018-05-18T20:25:18.167Z,84.30
2018-05-18T20:27:45.321Z,84.00
2018-05-18T20:30:12.670Z,84.50
2018-05-18T20:33:01.276Z,84.50
2018-05-18T20:35:28.462Z,84.70
2018-05-18T20:37:56.373Z,84.60
2018-05-18T20:40:23.823Z,84.60
2018-05-18T20:42:51.121Z,84.60
2018-05-18T20:45:19.380Z,84.50
2018-05-18T20:47:46.529Z,84.50
2018-05-18T20:50:15.599Z,84.50
2018-05-18T20:52:53.495Z,84.90
2018-05-18T20:55:21.664Z,85.10
2018-05-18T20:57:48.873Z,85.40
2018-05-18T21:00:15.986Z,85.60
2018-05-18T21:02:45.681Z,85.60
2018-05-18T21:05:14.285Z,85.80
2018-05-18T21:07:43.800Z,85.40
2018-05-18T21:10:16.623Z,85.50
2018-05-18T21:12:46.385Z,85.50
2018-05-18T21:15:17.676Z,85.40
2018-05-18T21:17:45.606Z,85.50
2018-05-18T21:20:12.742Z,85.70
2018-05-18T21:23:00.257Z,85.80
2018-05-18T21:25:27.298Z,85.90
2018-05-18T21:28:00.260Z,85.60
2018-05-18T21:30:29.593Z,85.30
2018-05-18T21:33:02.769Z,85.10
2018-05-18T21:35:30.043Z,84.80
2018-05-18T21:37:57.944Z,84.90
2018-05-18T21:40:25.761Z,84.90
2018-05-18T21:42:54.782Z,84.90
2018-05-18T21:45:21.898Z,84.40
2018-05-18T21:47:49.079Z,84.30
2018-05-18T21:50:19.886Z,84.50
2018-05-18T21:52:54.124Z,84.50
2018-05-18T21:55:21.570Z,85.80
2018-05-18T21:57:50.449Z,84.80
2018-05-18T22:00:17.979Z,84.80
2018-05-18T22:02:46.255Z,84.80
2018-05-18T22:05:14.474Z,84.90
2018-05-18T22:07:41.573Z,85.10
2018-05-18T22:10:13.065Z,84.50
2018-05-18T22:12:55.213Z,84.30
2018-05-18T22:15:22.349Z,84.80
2018-05-18T22:17:52.372Z,84.50
2018-05-18T22:20:19.604Z,84.70
2018-05-18T22:22:50.668Z,84.50
2018-05-18T22:25:17.797Z,84.40
2018-05-18T22:27:44.961Z,84.30
2018-05-18T22:30:12.224Z,83.50
2018-05-18T22:32:40.468Z,84.90
2018-05-18T22:35:07.611Z,84.80
2018-05-18T22:37:35.410Z,84.90
2018-05-18T22:40:02.565Z,84.80
2018-05-18T22:42:30.773Z,84.70
2018-05-18T22:44:57.952Z,84.50
2018-05-18T22:47:25.023Z,84.40
2018-05-18T22:49:54.397Z,84.10
2018-05-18T22:52:22.623Z,84.10
2018-05-18T22:54:49.744Z,83.50
2018-05-18T22:57:16.865Z,83.90
2018-05-18T22:59:44.075Z,83.80
2018-05-18T23:02:21.282Z,83.70
2018-05-18T23:04:48.415Z,83.90
2018-05-18T23:07:15.537Z,84.20
2018-05-18T23:09:43.615Z,84.50
2018-05-18T23:12:12.806Z,84.60
2018-05-18T23:14:41.111Z,85.30
2018-05-18T23:17:08.629Z,85.30
2018-05-18T23:19:36.418Z,85.40
2018-05-18T23:22:06.791Z,85.30
2018-05-18T23:24:34.689Z,85.30
2018-05-18T23:27:01.809Z,86.10
2018-05-18T23:29:28.955Z,85.60
2018-05-18T23:31:59.330Z,85.50
2018-05-18T23:34:27.277Z,85.50
2018-05-18T23:36:54.833Z,85.50
2018-05-18T23:39:22.189Z,84.90
2018-05-18T23:41:53.437Z,84.90
2018-05-18T23:44:20.654Z,84.50
2018-05-18T23:46:47.753Z,84.30
2018-05-18T23:49:14.898Z,84.10
2018-05-18T23:51:42.926Z,84.30
2018-05-18T23:54:10.045Z,84.30
2018-05-18T23:56:37.928Z,84.60
2018-05-18T23:59:05.188Z,84.60
